createdAt,value
2022-08-26T00:00:40.525Z,6.25
2022-08-26T00:03:03.727Z,6.22
2022-08-26T00:05:27.200Z,5.75
2022-08-26T00:07:49.984Z,6.05
2022-08-26T00:10:14.408Z,6.20
2022-08-26T00:12:37.785Z,5.75
2022-08-26T00:15:00.794Z,6.00
2022-08-26T00:17:24.189Z,6.28
2022-08-26T00:19:49.278Z,6.13
2022-08-26T00:22:20.240Z,6.00
2022-08-26T00:24:47.860Z,6.38
2022-08-26T00:27:10.716Z,6.00
2022-08-26T00:29:34.945Z,6.35
2022-08-26T00:32:01.488Z,6.40
2022-08-26T00:34:26.600Z,6.33
2022-08-26T00:36:49.335Z,6.30
2022-08-26T00:39:14.691Z,6.90
2022-08-26T00:41:41.359Z,6.50
2022-08-26T00:44:04.358Z,6.82
2022-08-26T00:46:34.098Z,6.80
2022-08-26T00:49:11.999Z,6.57
2022-08-26T00:51:40.207Z,6.63
2022-08-26T00:54:06.740Z,6.25
2022-08-26T00:56:38.246Z,6.47
2022-08-26T00:59:03.485Z,6.93
2022-08-26T01:01:28.283Z,6.68
2022-08-26T01:03:55.547Z,6.90
2022-08-26T01:06:19.060Z,6.75
2022-08-26T01:08:41.920Z,6.85
2022-08-26T01:11:05.517Z,6.77
2022-08-26T01:13:30.574Z,7.03
2022-08-26T01:15:56.713Z,7.07
2022-08-26T01:18:20.123Z,7.10
2022-08-26T01:20:42.816Z,6.78
2022-08-26T01:23:09.187Z,7.27
2022-08-26T01:25:35.059Z,7.07
2022-08-26T01:28:02.118Z,6.80
2022-08-26T01:30:28.066Z,7.40
2022-08-26T01:32:52.227Z,7.32
2022-08-26T01:35:14.953Z,7.60
2022-08-26T01:37:40.495Z,7.35
2022-08-26T01:40:06.055Z,7.50
2022-08-26T01:42:29.287Z,7.20
2022-08-26T01:44:57.691Z,7.35
2022-08-26T01:47:23.028Z,7.20
2022-08-26T01:49:48.027Z,7.05
2022-08-26T01:52:20.675Z,7.13
2022-08-26T01:54:46.397Z,7.60
2022-08-26T01:57:15.120Z,7.80
2022-08-26T01:59:38.552Z,7.33
2022-08-26T02:02:02.100Z,7.50
2022-08-26T02:04:36.373Z,7.30
2022-08-26T02:07:02.208Z,7.50
2022-08-26T02:09:25.685Z,7.70
2022-08-26T02:11:51.050Z,7.20
2022-08-26T02:14:19.456Z,7.93
2022-08-26T02:16:45.656Z,7.97
2022-08-26T02:19:18.683Z,7.53
2022-08-26T02:21:43.748Z,7.57
2022-08-26T02:24:13.077Z,7.70
2022-08-26T02:26:35.844Z,7.65
2022-08-26T02:29:05.300Z,8.13
2022-08-26T02:31:30.494Z,7.72
2022-08-26T02:33:53.294Z,8.10
2022-08-26T02:36:22.471Z,7.83
2022-08-26T02:38:46.217Z,7.55
2022-08-26T02:41:10.251Z,7.82
2022-08-26T02:43:33.555Z,8.30
2022-08-26T02:45:56.140Z,8.45
2022-08-26T02:48:21.470Z,7.53
2022-08-26T02:50:45.236Z,8.95
2022-08-26T02:53:08.466Z,9.20
2022-08-26T02:55:32.167Z,8.20
2022-08-26T02:57:55.832Z,8.57
2022-08-26T03:00:18.629Z,8.23
2022-08-26T03:02:41.284Z,8.82
2022-08-26T03:05:04.766Z,8.60
2022-08-26T03:07:27.588Z,8.88
2022-08-26T03:09:50.432Z,9.32
2022-08-26T03:12:14.277Z,9.10
2022-08-26T03:14:36.873Z,9.35
2022-08-26T03:16:59.602Z,9.75
2022-08-26T03:19:24.204Z,9.70
2022-08-26T03:21:47.481Z,9.45
2022-08-26T03:24:11.477Z,8.87
2022-08-26T03:26:34.031Z,9.02
2022-08-26T03:29:15.648Z,9.80
2022-08-26T03:31:39.442Z,9.00
2022-08-26T03:34:03.540Z,9.57
2022-08-26T03:36:26.760Z,9.10
2022-08-26T03:38:49.640Z,9.02
2022-08-26T03:41:12.434Z,9.32
2022-08-26T03:44:01.556Z,9.77
2022-08-26T03:46:24.769Z,9.48
2022-08-26T03:48:49.555Z,9.90
2022-08-26T03:51:18.334Z,9.93
2022-08-26T03:53:42.371Z,10.27
2022-08-26T03:56:06.617Z,10.02
2022-08-26T03:58:29.337Z,9.27
2022-08-26T04:00:55.574Z,9.20
2022-08-26T04:03:41.076Z,10.00
2022-08-26T04:06:03.987Z,9.88
2022-08-26T04:08:26.476Z,9.82
2022-08-26T04:10:50.766Z,10.70
2022-08-26T04:13:13.866Z,10.20
2022-08-26T04:15:36.692Z,9.77
2022-08-26T04:17:59.421Z,10.00
2022-08-26T04:22:58.519Z,9.60
2022-08-26T04:25:22.550Z,9.33
2022-08-26T04:27:46.989Z,9.60
2022-08-26T04:30:11.529Z,9.65
2022-08-26T04:32:34.516Z,9.18
2022-08-26T04:34:57.305Z,9.18
2022-08-26T04:37:20.632Z,9.30
2022-08-26T04:39:44.651Z,8.93
2022-08-26T04:42:08.043Z,8.13
2022-08-26T04:44:31.837Z,8.27
2022-08-26T04:46:54.881Z,8.30
2022-08-26T04:49:18.605Z,8.13
2022-08-26T04:51:41.402Z,8.07
2022-08-26T04:54:07.337Z,7.47
2022-08-26T04:56:34.068Z,7.35
2022-08-26T04:58:57.131Z,7.40
2022-08-26T05:01:21.108Z,7.30
2022-08-26T05:03:44.671Z,7.15
2022-08-26T05:06:07.541Z,7.72
2022-08-26T05:08:32.309Z,7.22
2022-08-26T05:10:56.392Z,7.47
2022-08-26T05:13:21.112Z,7.30
2022-08-26T05:15:45.283Z,6.85
2022-08-26T05:18:08.870Z,7.05
2022-08-26T05:20:35.155Z,6.95
2022-08-26T05:23:01.953Z,7.50
2022-08-26T05:25:24.512Z,7.03
2022-08-26T05:27:50.129Z,7.28
2022-08-26T05:30:13.057Z,7.00
2022-08-26T05:32:35.773Z,6.80
2022-08-26T05:34:59.577Z,6.60
2022-08-26T05:37:23.689Z,6.73
2022-08-26T05:39:51.153Z,7.10
2022-08-26T05:42:15.647Z,6.95
2022-08-26T05:44:53.957Z,6.65
2022-08-26T05:47:19.049Z,6.60
2022-08-26T05:49:43.756Z,6.77
2022-08-26T05:52:14.221Z,6.47
2022-08-26T05:54:39.620Z,6.65
2022-08-26T05:57:02.907Z,6.50
2022-08-26T05:59:27.020Z,6.75
2022-08-26T06:01:53.826Z,6.80
2022-08-26T06:04:20.184Z,7.35
2022-08-26T06:06:43.883Z,6.72
2022-08-26T06:09:11.396Z,6.50
2022-08-26T06:11:36.390Z,6.30
2022-08-26T06:14:03.814Z,6.27
2022-08-26T06:16:28.324Z,7.20
2022-08-26T06:18:53.459Z,6.70
2022-08-26T06:21:28.135Z,6.70
2022-08-26T06:24:11.848Z,6.57
2022-08-26T06:26:35.948Z,7.07
2022-08-26T06:28:59.969Z,6.25
2022-08-26T06:31:25.589Z,6.00
2022-08-26T06:33:48.706Z,6.38
2022-08-26T06:36:20.774Z,6.40
2022-08-26T06:38:43.846Z,6.53
2022-08-26T06:41:11.388Z,6.20
2022-08-26T06:43:35.217Z,6.50
2022-08-26T06:46:04.832Z,5.75
2022-08-26T06:48:27.732Z,5.93
2022-08-26T06:50:50.904Z,5.03
2022-08-26T06:53:14.472Z,4.90
2022-08-26T06:55:46.272Z,5.00
2022-08-26T06:58:09.607Z,5.38
2022-08-26T07:00:34.087Z,5.15
2022-08-26T07:02:56.823Z,5.27
2022-08-26T07:05:19.534Z,5.10
2022-08-26T07:07:42.224Z,5.20
2022-08-26T07:10:08.555Z,5.38
2022-08-26T07:12:31.149Z,5.03
2022-08-26T07:14:53.735Z,5.33
2022-08-26T07:17:16.673Z,5.40
2022-08-26T07:19:39.288Z,5.43
2022-08-26T07:22:06.952Z,4.80
2022-08-26T07:24:38.423Z,5.40
2022-08-26T07:27:05.484Z,4.87
2022-08-26T07:29:29.293Z,5.50
2022-08-26T07:31:52.055Z,5.38
2022-08-26T07:34:15.001Z,5.15
2022-08-26T07:36:38.987Z,5.28
2022-08-26T07:39:01.857Z,4.90
2022-08-26T07:41:25.791Z,5.30
2022-08-26T07:43:48.662Z,5.55
2022-08-26T07:46:18.408Z,5.05
2022-08-26T07:48:51.316Z,5.05
2022-08-26T07:51:15.540Z,5.47
2022-08-26T07:53:38.369Z,5.57
2022-08-26T07:56:01.164Z,4.97
2022-08-26T07:58:23.908Z,5.15
2022-08-26T08:00:47.504Z,5.53
2022-08-26T08:03:11.747Z,5.03
2022-08-26T08:05:34.664Z,5.40
2022-08-26T08:08:19.741Z,5.38
2022-08-26T08:10:40.198Z,5.70
2022-08-26T08:13:07.185Z,5.00
2022-08-26T08:15:35.508Z,5.07
2022-08-26T08:18:00.654Z,5.07
2022-08-26T08:20:24.460Z,5.20
2022-08-26T08:22:47.070Z,5.10
2022-08-26T08:25:11.282Z,5.38
2022-08-26T08:27:35.474Z,5.30
2022-08-26T08:29:58.250Z,5.30
2022-08-26T08:32:22.443Z,4.93
2022-08-26T08:34:46.912Z,5.22
2022-08-26T08:37:10.871Z,5.35
2022-08-26T08:39:33.711Z,5.15
2022-08-26T08:42:14.177Z,5.07
2022-08-26T08:44:40.935Z,5.10
2022-08-26T08:47:11.399Z,5.35
2022-08-26T08:49:34.637Z,4.85
2022-08-26T08:52:04.246Z,4.88
2022-08-26T08:54:28.229Z,5.38
2022-08-26T08:56:57.667Z,4.90
2022-08-26T08:59:25.297Z,4.70
2022-08-26T09:01:53.977Z,5.20
2022-08-26T09:04:38.132Z,4.68
2022-08-26T09:07:03.466Z,5.22
2022-08-26T09:09:38.555Z,4.83
2022-08-26T09:12:02.296Z,4.97
2022-08-26T09:14:25.992Z,5.00
2022-08-26T09:17:04.759Z,5.32
2022-08-26T09:19:48.272Z,5.40
2022-08-26T09:22:11.334Z,5.03
2022-08-26T09:24:39.619Z,5.28
2022-08-26T09:27:05.229Z,5.10
2022-08-26T09:29:31.243Z,4.95
2022-08-26T09:32:13.998Z,5.30
2022-08-26T09:34:37.833Z,4.83
2022-08-26T09:37:00.747Z,5.30
2022-08-26T09:39:30.017Z,5.38
2022-08-26T09:42:22.434Z,5.38
2022-08-26T09:44:54.125Z,5.70
2022-08-26T09:47:23.018Z,4.77
2022-08-26T09:49:57.875Z,5.35
2022-08-26T09:52:23.773Z,5.07
2022-08-26T09:55:02.372Z,5.38
2022-08-26T09:57:29.234Z,5.22
2022-08-26T09:59:52.497Z,5.27
2022-08-26T10:02:33.209Z,5.18
2022-08-26T10:04:57.733Z,5.60
2022-08-26T10:07:51.228Z,5.40
2022-08-26T10:10:45.706Z,5.55
2022-08-26T10:13:15.055Z,6.00
2022-08-26T10:15:54.250Z,5.25
2022-08-26T10:18:25.943Z,5.38
2022-08-26T10:21:04.328Z,5.15
2022-08-26T10:23:37.886Z,5.43
2022-08-26T10:26:18.044Z,5.00
2022-08-26T10:28:48.156Z,5.22
2022-08-26T10:31:28.497Z,5.70
2022-08-26T10:33:53.345Z,5.43
2022-08-26T10:37:05.083Z,5.40
2022-08-26T10:39:47.112Z,5.10
2022-08-26T10:42:33.444Z,4.85
2022-08-26T10:45:02.538Z,4.97
2022-08-26T10:47:35.273Z,4.93
2022-08-26T10:50:03.237Z,5.40
2022-08-26T10:52:47.775Z,4.90
2022-08-26T10:55:37.407Z,4.78
2022-08-26T10:58:13.874Z,4.85
2022-08-26T11:01:17.014Z,5.53
2022-08-26T11:04:04.221Z,5.50
2022-08-26T11:06:29.728Z,4.43
2022-08-26T11:08:57.929Z,4.80
2022-08-26T11:11:40.450Z,5.28
2022-08-26T11:14:29.349Z,4.65
2022-08-26T11:16:57.021Z,4.80
2022-08-26T11:20:00.724Z,4.20
2022-08-26T11:22:32.448Z,4.53
2022-08-26T11:24:55.118Z,4.55
2022-08-26T11:27:38.996Z,4.40
2022-08-26T11:30:07.613Z,4.38
2022-08-26T11:32:39.283Z,4.33
2022-08-26T11:35:05.592Z,4.50
2022-08-26T11:37:41.304Z,4.80
2022-08-26T11:40:09.379Z,4.60
2022-08-26T11:42:41.665Z,4.78
2022-08-26T11:45:16.001Z,4.50
2022-08-26T11:47:38.704Z,4.95
2022-08-26T11:50:10.048Z,5.03
2022-08-26T11:52:32.843Z,4.70
2022-08-26T11:55:01.775Z,5.07
2022-08-26T11:57:24.443Z,4.87
2022-08-26T11:59:47.607Z,5.20
2022-08-26T12:02:17.869Z,5.00
2022-08-26T12:04:46.326Z,4.72
2022-08-26T12:07:09.969Z,4.90
2022-08-26T12:09:35.023Z,4.63
2022-08-26T12:12:23.915Z,4.80
2022-08-26T12:14:47.965Z,4.70
2022-08-26T12:17:14.667Z,4.57
2022-08-26T12:19:38.378Z,4.68
2022-08-26T12:22:20.981Z,4.73
2022-08-26T12:24:51.147Z,4.57
2022-08-26T12:27:28.947Z,4.63
2022-08-26T12:30:02.576Z,5.03
2022-08-26T12:32:25.792Z,4.45
2022-08-26T12:34:49.058Z,4.50
2022-08-26T12:37:14.063Z,4.63
2022-08-26T12:39:40.245Z,4.63
2022-08-26T12:42:26.337Z,4.63
2022-08-26T12:44:53.905Z,5.00
2022-08-26T12:47:44.233Z,4.90
2022-08-26T12:50:13.203Z,5.30
2022-08-26T12:52:52.346Z,5.00
2022-08-26T12:55:45.345Z,4.50
2022-08-26T12:58:37.511Z,4.57
2022-08-26T13:01:09.173Z,5.13
2022-08-26T13:03:34.672Z,5.07
2022-08-26T13:06:31.330Z,5.05
2022-08-26T13:09:06.084Z,5.15
2022-08-26T13:11:30.462Z,5.10
2022-08-26T13:14:15.533Z,4.73
2022-08-26T13:16:47.654Z,4.60
2022-08-26T13:19:22.087Z,4.68
2022-08-26T13:21:50.739Z,4.10
2022-08-26T13:24:25.875Z,4.38
2022-08-26T13:26:49.451Z,4.87
2022-08-26T13:29:13.278Z,4.82
2022-08-26T13:31:36.943Z,4.80
2022-08-26T13:34:00.183Z,5.00
2022-08-26T13:36:23.674Z,5.28
2022-08-26T13:38:48.341Z,4.80
2022-08-26T13:41:14.876Z,4.60
2022-08-26T13:43:38.591Z,4.80
2022-08-26T13:46:01.984Z,4.82
2022-08-26T13:48:25.576Z,4.70
2022-08-26T13:50:48.505Z,4.70
2022-08-26T13:53:11.205Z,4.75
2022-08-26T13:55:34.000Z,4.70
2022-08-26T13:57:56.823Z,4.68
2022-08-26T14:00:20.446Z,5.03
2022-08-26T14:02:43.191Z,4.20
2022-08-26T14:05:06.588Z,4.57
2022-08-26T14:07:29.432Z,4.63
2022-08-26T14:09:52.191Z,4.40
2022-08-26T14:12:14.773Z,4.95
2022-08-26T14:14:37.328Z,4.87
2022-08-26T14:17:00.625Z,4.75
2022-08-26T14:19:24.439Z,5.10
2022-08-26T14:21:47.199Z,4.75
2022-08-26T14:24:11.666Z,4.55
2022-08-26T14:26:34.544Z,5.10
2022-08-26T14:29:02.673Z,4.70
2022-08-26T14:31:27.047Z,4.47
2022-08-26T14:33:49.856Z,4.82
2022-08-26T14:36:28.693Z,4.93
2022-08-26T14:38:52.260Z,4.50
2022-08-26T14:41:17.305Z,4.55
2022-08-26T14:43:48.777Z,5.13
2022-08-26T14:46:13.898Z,4.70
2022-08-26T14:48:36.477Z,4.57
2022-08-26T14:50:59.115Z,4.63
2022-08-26T14:53:40.757Z,4.80
2022-08-26T14:56:03.710Z,4.93
2022-08-26T14:58:33.816Z,4.65
2022-08-26T15:00:57.893Z,4.53
2022-08-26T15:03:23.615Z,4.70
2022-08-26T15:05:48.063Z,4.60
2022-08-26T15:08:11.208Z,4.47
2022-08-26T15:10:34.116Z,4.82
2022-08-26T15:12:56.631Z,4.50
2022-08-26T15:15:20.037Z,4.67
2022-08-26T15:17:43.336Z,4.60
2022-08-26T15:20:09.313Z,4.60
2022-08-26T15:22:32.066Z,4.97
2022-08-26T15:24:58.143Z,4.43
2022-08-26T15:27:20.956Z,4.73
2022-08-26T15:29:44.055Z,4.88
2022-08-26T15:32:06.693Z,4.97
2022-08-26T15:34:29.262Z,4.55
2022-08-26T15:36:55.034Z,4.80
2022-08-26T15:39:19.528Z,4.73
2022-08-26T15:41:42.164Z,4.50
2022-08-26T15:44:06.385Z,4.60
2022-08-26T15:46:29.324Z,4.50
2022-08-26T15:48:52.221Z,4.90
2022-08-26T15:51:24.559Z,4.77
2022-08-26T15:53:47.604Z,5.00
2022-08-26T15:56:10.338Z,4.90
2022-08-26T15:58:33.249Z,4.90
2022-08-26T16:00:58.874Z,5.18
2022-08-26T16:03:22.633Z,4.83
2022-08-26T16:05:46.534Z,4.80
2022-08-26T16:08:10.231Z,4.40
2022-08-26T16:10:35.933Z,4.57
2022-08-26T16:12:59.019Z,4.50
2022-08-26T16:15:22.063Z,4.77
2022-08-26T16:17:45.267Z,5.05
2022-08-26T16:20:08.951Z,4.60
2022-08-26T16:22:31.922Z,4.70
2022-08-26T16:25:01.501Z,4.72
2022-08-26T16:27:27.613Z,4.60
2022-08-26T16:29:50.712Z,5.05
2022-08-26T16:32:13.396Z,5.60
2022-08-26T16:34:36.237Z,4.93
2022-08-26T16:37:00.543Z,4.97
2022-08-26T16:39:23.105Z,4.73
2022-08-26T16:41:45.813Z,4.95
2022-08-26T16:44:08.983Z,5.20
2022-08-26T16:46:32.163Z,4.88
2022-08-26T16:48:57.171Z,5.03
2022-08-26T16:51:24.960Z,5.03
2022-08-26T16:53:47.754Z,5.10
2022-08-26T16:56:14.744Z,5.40
2022-08-26T16:58:37.492Z,5.57
2022-08-26T17:01:00.177Z,5.88
2022-08-26T17:03:22.731Z,6.20
2022-08-26T17:05:45.500Z,6.03
2022-08-26T17:08:08.209Z,5.72
2022-08-26T17:10:31.593Z,5.43
2022-08-26T17:12:54.938Z,6.15
2022-08-26T17:15:18.413Z,5.57
2022-08-26T17:17:41.759Z,5.70
2022-08-26T17:20:09.575Z,6.22
2022-08-26T17:22:34.620Z,6.20
2022-08-26T17:24:57.695Z,5.90
2022-08-26T17:27:20.430Z,5.43
2022-08-26T17:29:43.188Z,5.65
2022-08-26T17:32:05.902Z,6.28
2022-08-26T17:34:28.691Z,5.82
2022-08-26T17:36:51.841Z,5.70
2022-08-26T17:39:14.986Z,5.03
2022-08-26T17:41:38.876Z,4.95
2022-08-26T17:44:01.525Z,5.32
2022-08-26T17:46:24.648Z,4.72
2022-08-26T17:48:48.387Z,4.93
2022-08-26T17:51:13.711Z,5.30
2022-08-26T17:53:37.243Z,5.00
2022-08-26T17:56:00.105Z,5.45
2022-08-26T17:58:24.916Z,5.40
2022-08-26T18:00:50.535Z,5.70
2022-08-26T18:03:13.708Z,5.80
2022-08-26T18:05:36.292Z,6.25
2022-08-26T18:07:58.923Z,5.97
2022-08-26T18:10:22.345Z,6.28
2022-08-26T18:12:45.265Z,5.80
2022-08-26T18:15:09.842Z,5.27
2022-08-26T18:17:32.777Z,5.00
2022-08-26T18:19:55.557Z,5.85
2022-08-26T18:22:18.480Z,5.72
2022-08-26T18:24:41.415Z,5.60
2022-08-26T18:27:19.179Z,5.40
2022-08-26T18:29:45.302Z,5.00
2022-08-26T18:32:08.802Z,6.05
2022-08-26T18:34:31.675Z,5.78
2022-08-26T18:36:54.692Z,5.78
2022-08-26T18:39:19.259Z,5.13
2022-08-26T18:41:49.216Z,6.00
2022-08-26T18:44:14.094Z,5.47
2022-08-26T18:46:36.955Z,5.60
2022-08-26T18:48:59.834Z,5.82
2022-08-26T18:51:29.612Z,5.73
2022-08-26T18:53:53.197Z,6.07
2022-08-26T18:56:18.163Z,5.20
2022-08-26T18:58:41.522Z,5.20
2022-08-26T19:01:04.204Z,5.85
2022-08-26T19:03:28.691Z,5.60
2022-08-26T19:05:51.346Z,5.50
2022-08-26T19:08:14.124Z,5.57
2022-08-26T19:10:40.045Z,5.60
2022-08-26T19:13:03.324Z,6.03
2022-08-26T19:15:29.133Z,5.67
2022-08-26T19:17:51.735Z,5.80
2022-08-26T19:20:14.548Z,5.80
2022-08-26T19:22:37.416Z,5.53
2022-08-26T19:25:00.871Z,5.32
2022-08-26T19:27:23.504Z,5.17
2022-08-26T19:29:46.755Z,5.88
2022-08-26T19:32:09.318Z,6.07
2022-08-26T19:34:32.095Z,5.13
2022-08-26T19:36:56.932Z,5.55
2022-08-26T19:39:20.990Z,5.30
2022-08-26T19:41:44.196Z,5.20
2022-08-26T19:44:10.418Z,5.28
2022-08-26T19:46:33.099Z,5.65
2022-08-26T19:48:58.086Z,5.53
2022-08-26T19:51:26.739Z,6.03
2022-08-26T19:53:49.594Z,5.50
2022-08-26T19:56:13.141Z,5.70
2022-08-26T19:58:35.772Z,5.70
2022-08-26T20:00:58.351Z,5.40
2022-08-26T20:03:20.967Z,5.80
2022-08-26T20:05:43.489Z,5.47
2022-08-26T20:08:06.112Z,5.70
2022-08-26T20:10:29.036Z,5.25
2022-08-26T20:12:52.310Z,5.32
2022-08-26T20:15:15.338Z,5.90
2022-08-26T20:17:39.068Z,5.75
2022-08-26T20:20:33.413Z,5.72
2022-08-26T20:22:56.541Z,5.55
2022-08-26T20:25:20.040Z,5.70
2022-08-26T20:27:42.831Z,5.70
2022-08-26T20:30:07.436Z,5.10
2022-08-26T20:32:35.026Z,5.20
2022-08-26T20:34:58.040Z,5.53
2022-08-26T20:37:21.836Z,5.40
2022-08-26T20:39:45.369Z,5.20
2022-08-26T20:42:19.898Z,5.75
2022-08-26T20:44:43.239Z,5.28
2022-08-26T20:47:17.030Z,5.22
2022-08-26T20:49:39.807Z,5.20
2022-08-26T20:52:05.462Z,5.40
2022-08-26T20:54:28.744Z,5.80
2022-08-26T20:56:51.979Z,5.63
2022-08-26T20:59:16.897Z,5.50
2022-08-26T21:01:42.272Z,5.40
2022-08-26T21:04:08.765Z,5.07
2022-08-26T21:06:35.046Z,5.55
2022-08-26T21:08:57.733Z,5.55
2022-08-26T21:11:20.731Z,4.93
2022-08-26T21:14:03.873Z,5.13
2022-08-26T21:16:26.416Z,5.20
2022-08-26T21:18:50.079Z,4.70
2022-08-26T21:21:13.183Z,5.18
2022-08-26T21:23:36.666Z,4.72
2022-08-26T21:26:11.039Z,4.85
2022-08-26T21:28:39.895Z,5.53
2022-08-26T21:31:07.496Z,5.15
2022-08-26T21:33:30.442Z,5.30
2022-08-26T21:35:54.453Z,5.10
2022-08-26T21:38:17.165Z,5.30
2022-08-26T21:40:39.962Z,5.27
2022-08-26T21:43:02.654Z,5.47
2022-08-26T21:45:25.280Z,5.05
2022-08-26T21:47:47.969Z,5.20
2022-08-26T21:50:11.038Z,5.20
2022-08-26T21:52:34.076Z,5.13
2022-08-26T21:55:01.275Z,5.20
2022-08-26T21:57:23.928Z,5.25
2022-08-26T21:59:46.478Z,5.35
2022-08-26T22:02:09.159Z,6.05
2022-08-26T22:04:31.743Z,5.27
2022-08-26T22:06:57.528Z,5.82
2022-08-26T22:09:25.162Z,5.97
2022-08-26T22:11:48.169Z,6.10
2022-08-26T22:14:11.428Z,5.50
2022-08-26T22:16:34.422Z,5.20
2022-08-26T22:18:57.133Z,5.40
2022-08-26T22:21:23.801Z,5.38
2022-08-26T22:23:47.548Z,5.20
2022-08-26T22:26:12.105Z,5.60
2022-08-26T22:28:36.181Z,5.43
2022-08-26T22:30:59.475Z,5.20
2022-08-26T22:33:23.122Z,5.75
2022-08-26T22:35:48.301Z,5.45
2022-08-26T22:38:11.373Z,5.28
2022-08-26T22:40:35.487Z,5.50
2022-08-26T22:43:00.352Z,5.22
2022-08-26T22:45:23.079Z,5.30
2022-08-26T22:47:45.897Z,5.20
2022-08-26T22:50:09.268Z,5.60
2022-08-26T22:52:32.058Z,5.30
2022-08-26T22:54:55.025Z,5.25
2022-08-26T22:57:17.785Z,5.20
2022-08-26T22:59:41.033Z,5.38
2022-08-26T23:02:05.182Z,5.25
2022-08-26T23:04:30.960Z,5.20
2022-08-26T23:06:57.474Z,5.47
2022-08-26T23:09:21.250Z,5.32
2022-08-26T23:11:46.316Z,4.97
2022-08-26T23:14:08.872Z,5.75
2022-08-26T23:16:37.856Z,5.10
2022-08-26T23:19:02.882Z,5.10
2022-08-26T23:21:25.540Z,5.57
2022-08-26T23:23:48.263Z,5.60
2022-08-26T23:26:13.458Z,5.55
2022-08-26T23:28:39.728Z,5.17
2022-08-26T23:31:02.422Z,5.43
2022-08-26T23:33:45.267Z,5.50
2022-08-26T23:36:08.493Z,5.70
2022-08-26T23:38:31.860Z,5.43
2022-08-26T23:40:55.769Z,5.30
2022-08-26T23:43:18.284Z,5.15
2022-08-26T23:45:41.095Z,5.10
2022-08-26T23:48:05.993Z,5.60
2022-08-26T23:50:48.878Z,5.43
2022-08-26T23:53:19.314Z,5.60
2022-08-26T23:55:41.988Z,5.65
2022-08-26T23:58:06.156Z,5.82
